Time;durP1;ratioP1;P1;durP2;ratioP2;P2;SDS_P1;SDS_P2;PMS_P1;PMS_P2;Temp;Humidity;BMP_temperature;BMP_pressure;BME280_temperature;BME280_humidity;BME280_pressure;Samples;Min_cycle;Max_cycle;Signal;HPM_P1;HPM_P2
2022/01/08 00:00:51;;;;;;;;;;;;;;;;;;2104179;28;1861;-76
2022/01/08 00:01:51;;;;;;;;;;;;;;;;;;2104230;28;1339;-76
2022/01/08 00:02:53;;;;;;;;;;;;;;;;;;2104608;28;1358;-76
2022/01/08 00:03:54;;;;;;;;;;;;;;;;;;2103658;28;1881;-76
2022/01/08 00:04:57;;;;;;;;;;;;;;;;;;2101896;28;1331;-76
2022/01/08 00:05:58;;;;;;;;;;;;;;;;;;2103737;28;1755;-75
2022/01/08 00:07:01;;;;;;;;;;;;;;;;;;2103572;28;1231;-78
2022/01/08 00:08:01;;;;;;;;;;;;;;;;;;2101553;28;1977;-75
2022/01/08 00:09:04;;;;;;;;;;;;;;;;;;2104011;28;1735;-75
2022/01/08 00:10:04;;;;;;;;;;;;;;;;;;2102922;28;1335;-76
2022/01/08 00:11:07;;;;;;;;;;;;;;;;;;2102814;28;1298;-77
2022/01/08 00:12:09;;;;;;;;;;;;;;;;;;2104280;28;1671;-77
2022/01/08 00:13:11;;;;;;;;;;;;;;;;;;2104280;28;1369;-76
2022/01/08 00:14:14;;;;;;;;;;;;;;;;;;2104332;28;1275;-76
2022/01/08 00:15:16;;;;;;;;;;;;;;;;;;2103995;28;1719;-75
2022/01/08 00:16:17;;;;;;;;;;;;;;;;;;2103777;28;1278;-76
2022/01/08 00:17:19;;;;;;;;;;;;;;;;;;2102641;28;1429;-76
2022/01/08 00:18:20;;;;;;;;;;;;;;;;;;2104028;28;1449;-77
2022/01/08 00:19:21;;;;;;;;;;;;;;;;;;2101461;28;1456;-76
2022/01/08 00:20:23;;;;;;;;;;;;;;;;;;2103713;28;1473;-76
2022/01/08 00:21:23;;;;;;;;;;;;;;;;;;2102436;28;1702;-77
2022/01/08 00:22:25;;;;;;;;;;;;;;;;;;2101877;28;1333;-75
2022/01/08 00:23:28;;;;;;;;;;;;;;;;;;2104004;28;1408;-76
2022/01/08 00:24:28;;;;;;;;;;;;;;;;;;2103314;28;1624;-77
2022/01/08 00:25:30;;;;;;;;;;;;;;;;;;2103439;28;1444;-76
2022/01/08 00:26:31;;;;;;;;;;;;;;;;;;2102116;28;1449;-76
2022/01/08 00:27:34;;;;;;;;;;;;;;;;;;2105593;28;1607;-77
2022/01/08 00:28:35;;;;;;;;;;;;;;;;;;2103224;28;1887;-76
2022/01/08 00:29:36;;;;;;;;;;;;;;;;;;2103537;28;1516;-77
2022/01/08 00:30:38;;;;;;;;;;;;;;;;;;2104306;28;1710;-76
2022/01/08 00:31:39;;;;;;;;;;;;;;;;;;2103547;28;1433;-76
2022/01/08 00:32:42;;;;;;;;;;;;;;;;;;2102402;28;1420;-76
2022/01/08 00:33:42;;;;;;;;;;;;;;;;;;2103001;28;1599;-76
2022/01/08 00:34:45;;;;;;;;;;;;;;;;;;2104197;28;1448;-76
2022/01/08 00:35:46;;;;;;;;;;;;;;;;;;2101996;28;1465;-76
2022/01/08 00:36:50;;;;;;;;;;;;;;;;;;2102148;28;1938;-76
2022/01/08 00:37:51;;;;;;;;;;;;;;;;;;2106092;28;1428;-77
2022/01/08 00:38:55;;;;;;;;;;;;;;;;;;2096514;28;1438;-77
2022/01/08 00:39:57;;;;;;;;;;;;;;;;;;2089688;28;2015;-77
2022/01/08 00:41:00;;;;;;;;;;;;;;;;;;2102928;28;1402;-77
2022/01/08 00:42:01;;;;;;;;;;;;;;;;;;2104323;28;1667;-76
2022/01/08 00:43:10;;;;;;;;;;;;;;;;;;2104873;28;1310;-76
2022/01/08 00:44:10;;;;;;;;;;;;;;;;;;2099060;28;1374;-76
2022/01/08 00:45:12;;;;;;;;;;;;;;;;;;2100509;28;2029;-76
2022/01/08 00:46:14;;;;;;;;;;;;;;;;;;2107682;28;930;-76
2022/01/08 00:47:14;;;;;;;;;;;;;;;;;;2107634;28;874;-76
2022/01/08 00:48:16;;;;;;;;;;;;;;;;;;2104459;28;1996;-77
2022/01/08 00:49:16;;;;;;;;;;;;;;;;;;2099187;28;1093;-76
2022/01/08 00:50:18;;;;;;;;;;;;;;;;;;2099270;28;799;-76
2022/01/08 00:51:19;;;;;;;;;;;;;;;;;;2101472;28;1852;-76
2022/01/08 00:52:20;;;;;;;;;;;;;;;;;;2107597;28;870;-76
2022/01/08 00:53:21;;;;;;;;;;;;;;;;;;2107570;28;882;-76
2022/01/08 00:54:22;;;;;;;;;;;;;;;;;;2106315;28;1928;-77
2022/01/08 00:55:23;;;;;;;;;;;;;;;;;;2107419;28;1122;-76
2022/01/08 00:56:25;;;;;;;;;;;;;;;;;;2107407;28;960;-76
2022/01/08 00:57:25;;;;;;;;;;;;;;;;;;2107598;28;1124;-76
2022/01/08 00:58:28;;;;;;;;;;;;;;;;;;2106711;28;871;-76
2022/01/08 00:59:29;;;;;;;;;;;;;;;;;;2106969;28;894;-76
2022/01/08 01:00:30;;;;;;;;;;;;;;;;;;2107625;28;934;-76
2022/01/08 01:01:31;;;;;;;;;;;;;;;;;;2107513;28;878;-76
2022/01/08 01:02:33;;;;;;;;;;;;;;;;;;2107409;28;898;-76
2022/01/08 01:03:33;;;;;;;;;;;;;;;;;;2105899;28;1837;-76
2022/01/08 01:04:35;;;;;;;;;;;;;;;;;;2106855;28;890;-76
2022/01/08 01:05:35;;;;;;;;;;;;;;;;;;2107541;28;798;-76
2022/01/08 01:06:37;;;;;;;;;;;;;;;;;;2106694;28;1814;-76
2022/01/08 01:07:39;;;;;;;;;;;;;;;;;;2107521;28;863;-76
2022/01/08 01:08:39;;;;;;;;;;;;;;;;;;2107312;28;1901;-76
2022/01/08 01:09:41;;;;;;;;;;;;;;;;;;2106308;28;2094;-76
2022/01/08 01:10:41;;;;;;;;;;;;;;;;;;2107483;28;894;-76
2022/01/08 01:11:43;;;;;;;;;;;;;;;;;;2107506;28;1201;-75
2022/01/08 01:12:44;;;;;;;;;;;;;;;;;;2106183;28;1833;-75
2022/01/08 01:13:46;;;;;;;;;;;;;;;;;;2106738;28;894;-76
2022/01/08 01:14:48;;;;;;;;;;;;;;;;;;2106673;28;933;-75
2022/01/08 01:15:49;;;;;;;;;;;;;;;;;;2106270;28;1880;-77
2022/01/08 01:16:50;;;;;;;;;;;;;;;;;;2106686;28;906;-76
2022/01/08 01:17:51;;;;;;;;;;;;;;;;;;2106806;28;1064;-76
2022/01/08 01:18:52;;;;;;;;;;;;;;;;;;2099148;28;1845;-76
2022/01/08 01:19:54;;;;;;;;;;;;;;;;;;2099123;28;946;-76
2022/01/08 01:20:55;;;;;;;;;;;;;;;;;;2098223;28;1024;-75
2022/01/08 01:21:58;;;;;;;;;;;;;;;;;;2098111;28;1985;-76
2022/01/08 01:23:05;;;;;;;;;;;;;;;;;;2106736;28;918;-75
2022/01/08 01:24:12;;;;;;;;;;;;;;;;;;2106654;28;1826;-76
2022/01/08 01:25:19;;;;;;;;;;;;;;;;;;2107363;28;846;-75
2022/01/08 01:26:26;;;;;;;;;;;;;;;;;;2107392;28;799;-76
2022/01/08 01:28:48;;;;;;;;;;;;;;;;;;2107224;28;1910;-76
2022/01/08 01:29:56;;;;;;;;;;;;;;;;;;2106626;28;925;-75
2022/01/08 01:41:42;;;;;;;;;;;;;;;;;;2099081;28;882;-76
2022/01/08 01:43:16;;;;;;;;;;;;;;;;;;2104587;28;1849;-77
2022/01/08 01:47:03;;;;;;;;;;;;;;;;;;2107337;28;834;-75
2022/01/08 01:48:05;;;;;;;;;;;;;;;;;;2106158;28;1848;-76
2022/01/08 01:49:06;;;;;;;;;;;;;;;;;;2108531;28;1905;-77
2022/01/08 01:50:09;;;;;;;;;;;;;;;;;;2108899;28;910;-76
2022/01/08 01:51:17;;;;;;;;;;;;;;;;;;2106532;28;1837;-76
2022/01/08 01:52:18;;;;;;;;;;;;;;;;;;2100500;28;903;-75
2022/01/08 01:53:19;;;;;;;;;;;;;;;;;;2100548;28;1172;-76
2022/01/08 01:54:20;;;;;;;;;;;;;;;;;;2102537;28;1821;-76
2022/01/08 01:55:22;;;;;;;;;;;;;;;;;;2108937;28;1422;-75
2022/01/08 01:56:22;;;;;;;;;;;;;;;;;;2108934;28;942;-75
2022/01/08 01:57:24;;;;;;;;;;;;;;;;;;2108052;28;1837;-76
2022/01/08 01:58:24;;;;;;;;;;;;;;;;;;2108901;28;950;-75
2022/01/08 01:59:26;;;;;;;;;;;;;;;;;;2108816;28;965;-76
2022/01/08 02:00:28;;;;;;;;;;;;;;;;;;2106924;28;1838;-75
2022/01/08 02:01:30;;;;;;;;;;;;;;;;;;2108317;28;899;-76
2022/01/08 02:02:31;;;;;;;;;;;;;;;;;;2108941;28;874;-75
2022/01/08 02:03:32;;;;;;;;;;;;;;;;;;2107459;28;1973;-75
2022/01/08 02:04:34;;;;;;;;;;;;;;;;;;2108815;28;913;-75
2022/01/08 02:05:34;;;;;;;;;;;;;;;;;;2109003;28;942;-76
2022/01/08 02:06:36;;;;;;;;;;;;;;;;;;2108049;28;1801;-75
2022/01/08 02:07:36;;;;;;;;;;;;;;;;;;2108815;28;879;-75
2022/01/08 02:08:39;;;;;;;;;;;;;;;;;;2108806;28;1918;-76
2022/01/08 02:09:40;;;;;;;;;;;;;;;;;;2107486;28;1885;-76
2022/01/08 02:10:41;;;;;;;;;;;;;;;;;;2108793;28;807;-75
2022/01/08 02:11:55;;;;;;;;;;;;;;;;;;2108690;28;895;-76
2022/01/08 02:12:56;;;;;;;;;;;;;;;;;;2107788;28;1877;-75
2022/01/08 02:14:01;;;;;;;;;;;;;;;;;;2108072;28;891;-75
2022/01/08 02:15:03;;;;;;;;;;;;;;;;;;2108143;28;1833;-75
2022/01/08 02:16:06;;;;;;;;;;;;;;;;;;2099686;28;1007;-76
2022/01/08 02:17:09;;;;;;;;;;;;;;;;;;2099768;28;811;-76
2022/01/08 02:18:10;;;;;;;;;;;;;;;;;;2101340;28;1940;-75
2022/01/08 02:19:11;;;;;;;;;;;;;;;;;;2108851;28;1066;-75
2022/01/08 02:20:16;;;;;;;;;;;;;;;;;;2108621;28;780;-75
2022/01/08 02:21:17;;;;;;;;;;;;;;;;;;2107865;28;2028;-76
2022/01/08 02:22:20;;;;;;;;;;;;;;;;;;2108566;28;1389;-76
2022/01/08 02:23:22;;;;;;;;;;;;;;;;;;2108658;28;1156;-75
2022/01/08 02:24:23;;;;;;;;;;;;;;;;;;2107350;28;1821;-75
2022/01/08 02:25:25;;;;;;;;;;;;;;;;;;2108696;28;1059;-75
2022/01/08 02:26:25;;;;;;;;;;;;;;;;;;2108573;28;906;-75
2022/01/08 02:27:27;;;;;;;;;;;;;;;;;;2107611;28;1936;-76
2022/01/08 02:28:27;;;;;;;;;;;;;;;;;;2108471;28;1914;-76
2022/01/08 02:29:29;;;;;;;;;;;;;;;;;;2108729;28;890;-76
2022/01/08 02:30:30;;;;;;;;;;;;;;;;;;2107504;28;1985;-76
2022/01/08 02:31:33;;;;;;;;;;;;;;;;;;2108738;28;1093;-76
2022/01/08 02:32:35;;;;;;;;;;;;;;;;;;2107970;28;1375;-76
2022/01/08 02:33:37;;;;;;;;;;;;;;;;;;2107326;28;1870;-76
2022/01/08 02:34:40;;;;;;;;;;;;;;;;;;2108680;28;1300;-76
2022/01/08 02:35:42;;;;;;;;;;;;;;;;;;2107994;28;1298;-76
2022/01/08 02:36:44;;;;;;;;;;;;;;;;;;2101393;28;1900;-75
2022/01/08 02:37:45;;;;;;;;;;;;;;;;;;2100380;28;590;-76
2022/01/08 02:38:47;;;;;;;;;;;;;;;;;;2099992;28;819;-75
2022/01/08 02:39:49;;;;;;;;;;;;;;;;;;2106357;28;1901;-75
2022/01/08 02:40:53;;;;;;;;;;;;;;;;;;2108689;28;846;-76
2022/01/08 02:41:59;;;;;;;;;;;;;;;;;;2108571;28;918;-76
2022/01/08 02:43:03;;;;;;;;;;;;;;;;;;2108646;28;1038;-76
2022/01/08 02:44:06;;;;;;;;;;;;;;;;;;2108612;28;922;-75
2022/01/08 02:45:08;;;;;;;;;;;;;;;;;;2107469;28;1842;-75
2022/01/08 02:46:08;;;;;;;;;;;;;;;;;;2108513;28;1035;-76
2022/01/08 02:47:10;;;;;;;;;;;;;;;;;;2108480;28;934;-74
2022/01/08 02:48:13;;;;;;;;;;;;;;;;;;2107299;28;1830;-76
2022/01/08 02:49:14;;;;;;;;;;;;;;;;;;2108472;28;1910;-75
2022/01/08 02:50:16;;;;;;;;;;;;;;;;;;2107851;28;1203;-76
2022/01/08 02:51:18;;;;;;;;;;;;;;;;;;2107895;28;966;-76
2022/01/08 02:52:20;;;;;;;;;;;;;;;;;;2108491;28;956;-76
2022/01/08 02:53:21;;;;;;;;;;;;;;;;;;2108336;28;902;-76
2022/01/08 02:54:22;;;;;;;;;;;;;;;;;;2108608;28;957;-76
2022/01/08 02:55:23;;;;;;;;;;;;;;;;;;2108293;28;1297;-76
2022/01/08 02:56:24;;;;;;;;;;;;;;;;;;2108511;28;827;-75
2022/01/08 02:57:26;;;;;;;;;;;;;;;;;;2108474;28;898;-76
2022/01/08 02:58:28;;;;;;;;;;;;;;;;;;2108473;28;947;-76
2022/01/08 02:59:31;;;;;;;;;;;;;;;;;;2108327;28;902;-76
2022/01/08 03:00:31;;;;;;;;;;;;;;;;;;2107330;28;1845;-76
2022/01/08 03:01:33;;;;;;;;;;;;;;;;;;2108357;28;1106;-76
2022/01/08 03:02:34;;;;;;;;;;;;;;;;;;2108547;28;858;-77
2022/01/08 03:03:35;;;;;;;;;;;;;;;;;;2103202;28;1826;-76
2022/01/08 03:04:36;;;;;;;;;;;;;;;;;;2100030;28;965;-76
2022/01/08 03:05:37;;;;;;;;;;;;;;;;;;2099894;28;954;-76
2022/01/08 03:06:40;;;;;;;;;;;;;;;;;;2100186;28;886;-75
2022/01/08 03:07:42;;;;;;;;;;;;;;;;;;2099993;28;890;-76
2022/01/08 03:08:42;;;;;;;;;;;;;;;;;;2099842;28;1906;-76
2022/01/08 03:09:46;;;;;;;;;;;;;;;;;;2107352;28;1214;-77
2022/01/08 03:10:46;;;;;;;;;;;;;;;;;;2099386;28;920;-76
2022/01/08 03:11:48;;;;;;;;;;;;;;;;;;2099304;28;1125;-76
2022/01/08 03:12:49;;;;;;;;;;;;;;;;;;2100055;28;898;-76
2022/01/08 03:13:50;;;;;;;;;;;;;;;;;;2099933;28;1034;-76
2022/01/08 03:14:51;;;;;;;;;;;;;;;;;;2099999;28;767;-76
2022/01/08 03:15:52;;;;;;;;;;;;;;;;;;2099756;28;965;-76
2022/01/08 03:16:53;;;;;;;;;;;;;;;;;;2100069;28;1006;-76
2022/01/08 03:17:55;;;;;;;;;;;;;;;;;;2099880;28;922;-76
2022/01/08 03:18:56;;;;;;;;;;;;;;;;;;2107410;28;2109;-76
2022/01/08 03:20:03;;;;;;;;;;;;;;;;;;2108297;28;1039;-76
2022/01/08 03:21:13;;;;;;;;;;;;;;;;;;2106989;28;1894;-76
2022/01/08 03:22:16;;;;;;;;;;;;;;;;;;2107756;28;938;-76
2022/01/08 03:23:18;;;;;;;;;;;;;;;;;;2108370;28;906;-76
2022/01/08 03:24:26;;;;;;;;;;;;;;;;;;2108286;28;1068;-76
2022/01/08 03:25:27;;;;;;;;;;;;;;;;;;2108493;28;919;-76
2022/01/08 03:26:29;;;;;;;;;;;;;;;;;;2108130;28;911;-75
2022/01/08 03:27:30;;;;;;;;;;;;;;;;;;2107069;28;1833;-76
2022/01/08 03:28:32;;;;;;;;;;;;;;;;;;2108168;28;1012;-76
2022/01/08 03:29:32;;;;;;;;;;;;;;;;;;2108226;28;1949;-76
2022/01/08 03:30:34;;;;;;;;;;;;;;;;;;2106586;28;1892;-76
2022/01/08 03:31:35;;;;;;;;;;;;;;;;;;2108298;28;902;-76
2022/01/08 03:32:36;;;;;;;;;;;;;;;;;;2108225;28;866;-76
2022/01/08 03:33:37;;;;;;;;;;;;;;;;;;2108184;28;942;-76
2022/01/08 03:34:39;;;;;;;;;;;;;;;;;;2108060;28;872;-77
2022/01/08 03:35:39;;;;;;;;;;;;;;;;;;2108176;28;779;-76
2022/01/08 03:36:41;;;;;;;;;;;;;;;;;;2106926;28;1813;-76
2022/01/08 03:37:43;;;;;;;;;;;;;;;;;;2108126;28;875;-75
2022/01/08 03:38:45;;;;;;;;;;;;;;;;;;2108029;28;989;-76
2022/01/08 03:39:46;;;;;;;;;;;;;;;;;;2107326;28;1825;-76
2022/01/08 03:40:47;;;;;;;;;;;;;;;;;;2107386;28;952;-76
2022/01/08 03:41:48;;;;;;;;;;;;;;;;;;2107619;28;1471;-77
2022/01/08 03:42:49;;;;;;;;;;;;;;;;;;2106850;28;1944;-76
2022/01/08 03:43:51;;;;;;;;;;;;;;;;;;2108108;28;1117;-76
2022/01/08 03:44:51;;;;;;;;;;;;;;;;;;2108038;28;919;-76
2022/01/08 03:45:53;;;;;;;;;;;;;;;;;;2107524;28;1885;-76
2022/01/08 03:46:56;;;;;;;;;;;;;;;;;;2108188;28;1127;-76
2022/01/08 03:48:18;;;;;;;;;;;;;;;;;;2107698;28;1822;-77
2022/01/08 03:49:25;;;;;;;;;;;;;;;;;;2099586;28;1906;-76
2022/01/08 03:50:27;;;;;;;;;;;;;;;;;;2099723;28;973;-76
2022/01/08 03:51:28;;;;;;;;;;;;;;;;;;2102804;28;1785;-76
2022/01/08 03:52:29;;;;;;;;;;;;;;;;;;2108045;28;874;-75
2022/01/08 03:53:31;;;;;;;;;;;;;;;;;;2107863;28;954;-76
2022/01/08 03:54:33;;;;;;;;;;;;;;;;;;2106809;28;1897;-75
2022/01/08 03:55:33;;;;;;;;;;;;;;;;;;2107202;28;850;-76
2022/01/08 03:56:35;;;;;;;;;;;;;;;;;;2107418;28;992;-76
2022/01/08 03:57:35;;;;;;;;;;;;;;;;;;2106623;28;2042;-76
2022/01/08 03:58:37;;;;;;;;;;;;;;;;;;2107391;28;890;-77
2022/01/08 03:59:38;;;;;;;;;;;;;;;;;;2107898;28;1115;-76
2022/01/08 04:00:39;;;;;;;;;;;;;;;;;;2102174;28;1885;-76
2022/01/08 04:01:40;;;;;;;;;;;;;;;;;;2099466;28;1028;-76
2022/01/08 04:02:41;;;;;;;;;;;;;;;;;;2099669;28;1089;-76
2022/01/08 04:03:42;;;;;;;;;;;;;;;;;;2104922;28;1813;-75
2022/01/08 04:04:43;;;;;;;;;;;;;;;;;;2107941;28;1019;-76
2022/01/08 04:05:44;;;;;;;;;;;;;;;;;;2107207;28;1368;-76
2022/01/08 04:06:46;;;;;;;;;;;;;;;;;;2106189;28;1855;-75
2022/01/08 04:07:46;;;;;;;;;;;;;;;;;;2107951;28;1005;-75
2022/01/08 04:08:56;;;;;;;;;;;;;;;;;;2107940;28;1144;-76
2022/01/08 04:09:56;;;;;;;;;;;;;;;;;;2107046;28;1968;-76
2022/01/08 04:10:58;;;;;;;;;;;;;;;;;;2107866;28;1070;-76
2022/01/08 04:11:59;;;;;;;;;;;;;;;;;;2106486;28;1826;-76
2022/01/08 04:13:08;;;;;;;;;;;;;;;;;;2107459;28;788;-76
2022/01/08 04:14:09;;;;;;;;;;;;;;;;;;2107812;28;918;-76
2022/01/08 04:15:31;;;;;;;;;;;;;;;;;;2106688;28;1980;-76
2022/01/08 04:16:36;;;;;;;;;;;;;;;;;;2107675;28;1254;-76
2022/01/08 04:17:36;;;;;;;;;;;;;;;;;;2107877;28;1100;-76
2022/01/08 04:18:38;;;;;;;;;;;;;;;;;;2106551;28;1884;-76
2022/01/08 04:19:38;;;;;;;;;;;;;;;;;;2107797;28;906;-76
2022/01/08 04:20:50;;;;;;;;;;;;;;;;;;2107827;28;1047;-76
2022/01/08 04:21:59;;;;;;;;;;;;;;;;;;2099776;28;2085;-76
2022/01/08 04:23:01;;;;;;;;;;;;;;;;;;2098317;28;1044;-76
2022/01/08 04:24:05;;;;;;;;;;;;;;;;;;2099207;28;1992;-75
2022/01/08 04:25:07;;;;;;;;;;;;;;;;;;2099399;28;897;-76
2022/01/08 04:26:08;;;;;;;;;;;;;;;;;;2099422;28;1042;-76
2022/01/08 04:27:09;;;;;;;;;;;;;;;;;;2100035;28;1897;-76
2022/01/08 04:28:10;;;;;;;;;;;;;;;;;;2107856;28;887;-76
2022/01/08 04:29:11;;;;;;;;;;;;;;;;;;2107699;28;1031;-76
2022/01/08 04:30:12;;;;;;;;;;;;;;;;;;2107531;28;937;-76
2022/01/08 04:31:14;;;;;;;;;;;;;;;;;;2107595;28;827;-76
2022/01/08 04:32:14;;;;;;;;;;;;;;;;;;2107752;28;907;-76
2022/01/08 04:33:16;;;;;;;;;;;;;;;;;;2106346;28;1841;-75
2022/01/08 04:34:16;;;;;;;;;;;;;;;;;;2107745;28;779;-76
2022/01/08 04:35:18;;;;;;;;;;;;;;;;;;2107699;28;989;-76
2022/01/08 04:36:19;;;;;;;;;;;;;;;;;;2106455;28;1841;-75
2022/01/08 04:37:20;;;;;;;;;;;;;;;;;;2107656;28;764;-76
2022/01/08 04:38:22;;;;;;;;;;;;;;;;;;2107733;28;1003;-77
2022/01/08 04:39:23;;;;;;;;;;;;;;;;;;2106963;28;1829;-76
2022/01/08 04:40:25;;;;;;;;;;;;;;;;;;2107660;28;873;-75
2022/01/08 04:41:25;;;;;;;;;;;;;;;;;;2107621;28;914;-76
2022/01/08 04:42:27;;;;;;;;;;;;;;;;;;2106417;28;1813;-76
2022/01/08 04:43:28;;;;;;;;;;;;;;;;;;2107710;28;842;-76
2022/01/08 04:44:30;;;;;;;;;;;;;;;;;;2107733;28;948;-77
2022/01/08 04:45:31;;;;;;;;;;;;;;;;;;2105763;28;1822;-76
2022/01/08 04:46:32;;;;;;;;;;;;;;;;;;2107042;28;957;-77
2022/01/08 04:47:33;;;;;;;;;;;;;;;;;;2107614;28;969;-76
2022/01/08 04:48:34;;;;;;;;;;;;;;;;;;2106469;28;1960;-76
2022/01/08 04:49:35;;;;;;;;;;;;;;;;;;2107490;28;1973;-77
2022/01/08 04:50:37;;;;;;;;;;;;;;;;;;2107715;28;945;-77
2022/01/08 04:51:37;;;;;;;;;;;;;;;;;;2106394;28;1833;-76
2022/01/08 04:52:39;;;;;;;;;;;;;;;;;;2107650;28;830;-76
2022/01/08 04:53:40;;;;;;;;;;;;;;;;;;2107547;28;922;-77
2022/01/08 04:54:43;;;;;;;;;;;;;;;;;;2106151;28;1833;-76
2022/01/08 04:55:44;;;;;;;;;;;;;;;;;;2107507;28;823;-76
2022/01/08 04:56:45;;;;;;;;;;;;;;;;;;2107586;28;918;-77
2022/01/08 04:57:46;;;;;;;;;;;;;;;;;;2106650;28;1844;-76
2022/01/08 04:58:47;;;;;;;;;;;;;;;;;;2107581;28;799;-76
2022/01/08 04:59:48;;;;;;;;;;;;;;;;;;2107540;28;921;-76
2022/01/08 05:00:49;;;;;;;;;;;;;;;;;;2106355;28;1834;-76
2022/01/08 05:01:50;;;;;;;;;;;;;;;;;;2107353;28;962;-76
2022/01/08 05:02:51;;;;;;;;;;;;;;;;;;2107625;28;860;-75
2022/01/08 05:03:53;;;;;;;;;;;;;;;;;;2113211;28;2006;-77
2022/01/08 05:04:53;;;;;;;;;;;;;;;;;;2115273;28;824;-75
2022/01/08 05:05:55;;;;;;;;;;;;;;;;;;2107561;28;865;-75
2022/01/08 05:06:55;;;;;;;;;;;;;;;;;;2106960;28;1901;-76
2022/01/08 05:07:57;;;;;;;;;;;;;;;;;;2107493;28;894;-76
2022/01/08 05:08:57;;;;;;;;;;;;;;;;;;2106633;28;1853;-75
2022/01/08 05:10:00;;;;;;;;;;;;;;;;;;2106859;28;1910;-76
2022/01/08 05:11:01;;;;;;;;;;;;;;;;;;2107073;28;890;-75
2022/01/08 05:12:02;;;;;;;;;;;;;;;;;;2106685;28;1873;-74
2022/01/08 05:13:05;;;;;;;;;;;;;;;;;;2107281;28;938;-74
2022/01/08 05:14:09;;;;;;;;;;;;;;;;;;2107261;28;1065;-72
2022/01/08 05:15:09;;;;;;;;;;;;;;;;;;2106582;28;1940;-74
2022/01/08 05:16:11;;;;;;;;;;;;;;;;;;2107260;28;898;-76
2022/01/08 05:17:14;;;;;;;;;;;;;;;;;;2107442;28;791;-75
2022/01/08 05:18:15;;;;;;;;;;;;;;;;;;2106625;28;1936;-75
2022/01/08 05:19:23;;;;;;;;;;;;;;;;;;2107316;28;887;-73
2022/01/08 05:20:30;;;;;;;;;;;;;;;;;;2107275;28;887;-74
2022/01/08 05:21:33;;;;;;;;;;;;;;;;;;2106155;28;1920;-74
2022/01/08 05:22:49;;;;;;;;;;;;;;;;;;2107231;28;881;-75
2022/01/08 05:23:50;;;;;;;;;;;;;;;;;;2106872;28;989;-75
2022/01/08 05:24:51;;;;;;;;;;;;;;;;;;2106081;28;1973;-75
2022/01/08 05:25:53;;;;;;;;;;;;;;;;;;2106692;28;913;-75
2022/01/08 05:26:55;;;;;;;;;;;;;;;;;;2106767;28;1016;-72
2022/01/08 05:27:57;;;;;;;;;;;;;;;;;;2106833;28;1879;-72
2022/01/08 05:28:57;;;;;;;;;;;;;;;;;;2107359;28;934;-72
2022/01/08 05:29:59;;;;;;;;;;;;;;;;;;2106624;28;2034;-73
2022/01/08 05:31:00;;;;;;;;;;;;;;;;;;2106832;28;899;-75
2022/01/08 05:32:01;;;;;;;;;;;;;;;;;;2107365;28;799;-75
2022/01/08 05:33:02;;;;;;;;;;;;;;;;;;2107407;28;951;-74
2022/01/08 05:34:03;;;;;;;;;;;;;;;;;;2107376;28;871;-72
2022/01/08 05:35:04;;;;;;;;;;;;;;;;;;2107417;28;847;-74
2022/01/08 05:36:05;;;;;;;;;;;;;;;;;;2107285;28;936;-74
2022/01/08 05:37:06;;;;;;;;;;;;;;;;;;2107339;28;1039;-75
2022/01/08 05:38:08;;;;;;;;;;;;;;;;;;2107326;28;1474;-73
2022/01/08 05:39:08;;;;;;;;;;;;;;;;;;2105914;28;2115;-74
2022/01/08 05:40:10;;;;;;;;;;;;;;;;;;2107059;28;923;-73
2022/01/08 05:41:13;;;;;;;;;;;;;;;;;;2107275;28;985;-74
2022/01/08 05:42:14;;;;;;;;;;;;;;;;;;2105969;28;1931;-75
2022/01/08 05:43:15;;;;;;;;;;;;;;;;;;2107235;28;1069;-72
2022/01/08 05:44:17;;;;;;;;;;;;;;;;;;2107195;28;895;-72
2022/01/08 05:45:18;;;;;;;;;;;;;;;;;;2106697;28;1836;-74
2022/01/08 05:46:19;;;;;;;;;;;;;;;;;;2107230;28;890;-72
2022/01/08 05:47:21;;;;;;;;;;;;;;;;;;2107346;28;1028;-75
2022/01/08 05:48:23;;;;;;;;;;;;;;;;;;2106015;28;2007;-74
2022/01/08 05:49:23;;;;;;;;;;;;;;;;;;2107138;28;771;-73
2022/01/08 05:50:25;;;;;;;;;;;;;;;;;;2107275;28;1969;-72
2022/01/08 05:51:25;;;;;;;;;;;;;;;;;;2106469;28;1857;-73
2022/01/08 05:52:27;;;;;;;;;;;;;;;;;;2107262;28;1068;-72
2022/01/08 05:53:30;;;;;;;;;;;;;;;;;;2107412;28;954;-74
2022/01/08 05:54:31;;;;;;;;;;;;;;;;;;2106393;28;1905;-72
2022/01/08 05:55:32;;;;;;;;;;;;;;;;;;2107183;28;1073;-72
2022/01/08 05:56:34;;;;;;;;;;;;;;;;;;2107193;28;893;-75
2022/01/08 05:57:36;;;;;;;;;;;;;;;;;;2101846;28;1898;-74
2022/01/08 05:58:38;;;;;;;;;;;;;;;;;;2098721;28;942;-74
2022/01/08 05:59:40;;;;;;;;;;;;;;;;;;2098835;28;843;-72
2022/01/08 06:00:40;;;;;;;;;;;;;;;;;;2104332;28;2010;-75
2022/01/08 06:01:42;;;;;;;;;;;;;;;;;;2107327;28;839;-74
2022/01/08 06:02:42;;;;;;;;;;;;;;;;;;2107233;28;938;-74
2022/01/08 06:03:44;;;;;;;;;;;;;;;;;;2106007;28;1969;-73
2022/01/08 06:04:44;;;;;;;;;;;;;;;;;;2107080;28;954;-72
2022/01/08 06:05:46;;;;;;;;;;;;;;;;;;2107348;28;895;-74
2022/01/08 06:06:46;;;;;;;;;;;;;;;;;;2100496;28;1845;-72
2022/01/08 06:07:48;;;;;;;;;;;;;;;;;;2098819;28;914;-73
2022/01/08 06:08:48;;;;;;;;;;;;;;;;;;2098778;28;902;-75
2022/01/08 06:09:50;;;;;;;;;;;;;;;;;;2105087;28;2103;-72
2022/01/08 06:10:52;;;;;;;;;;;;;;;;;;2107182;28;902;-72
2022/01/08 06:11:54;;;;;;;;;;;;;;;;;;2107230;28;903;-74
2022/01/08 06:12:56;;;;;;;;;;;;;;;;;;2106195;28;1843;-75
2022/01/08 06:13:56;;;;;;;;;;;;;;;;;;2107124;28;1190;-72
2022/01/08 06:14:58;;;;;;;;;;;;;;;;;;2106557;28;1877;-74
2022/01/08 06:15:58;;;;;;;;;;;;;;;;;;2107141;28;916;-73
2022/01/08 06:17:00;;;;;;;;;;;;;;;;;;2107014;28;957;-72
2022/01/08 06:18:02;;;;;;;;;;;;;;;;;;2106509;28;2079;-75
2022/01/08 06:19:04;;;;;;;;;;;;;;;;;;2107086;28;1081;-74
2022/01/08 06:20:06;;;;;;;;;;;;;;;;;;2107208;28;874;-72
2022/01/08 06:21:07;;;;;;;;;;;;;;;;;;2107128;28;1076;-76
2022/01/08 06:22:08;;;;;;;;;;;;;;;;;;2107174;28;1069;-73
2022/01/08 06:23:09;;;;;;;;;;;;;;;;;;2106933;28;922;-73
2022/01/08 06:24:10;;;;;;;;;;;;;;;;;;2105889;28;1983;-73
2022/01/08 06:25:12;;;;;;;;;;;;;;;;;;2106920;28;891;-74
2022/01/08 06:26:12;;;;;;;;;;;;;;;;;;2106800;28;1132;-73
2022/01/08 06:27:15;;;;;;;;;;;;;;;;;;2106870;28;914;-71
2022/01/08 06:28:16;;;;;;;;;;;;;;;;;;2107124;28;933;-71
2022/01/08 06:29:17;;;;;;;;;;;;;;;;;;2106990;28;849;-72
2022/01/08 06:30:19;;;;;;;;;;;;;;;;;;2107018;28;1914;-72
2022/01/08 06:31:20;;;;;;;;;;;;;;;;;;2107167;28;795;-71
2022/01/08 06:32:21;;;;;;;;;;;;;;;;;;2106997;28;957;-71
2022/01/08 06:33:22;;;;;;;;;;;;;;;;;;2106307;28;1975;-71
2022/01/08 06:34:24;;;;;;;;;;;;;;;;;;2107048;28;870;-72
2022/01/08 06:35:26;;;;;;;;;;;;;;;;;;2108748;28;788;-72
2022/01/08 06:36:26;;;;;;;;;;;;;;;;;;2108559;28;910;-73
2022/01/08 06:37:28;;;;;;;;;;;;;;;;;;2107993;28;1507;-72
2022/01/08 06:38:28;;;;;;;;;;;;;;;;;;2107959;28;1040;-73
2022/01/08 06:39:30;;;;;;;;;;;;;;;;;;2107425;28;1857;-73
2022/01/08 06:40:30;;;;;;;;;;;;;;;;;;2107731;28;899;-71
2022/01/08 06:41:32;;;;;;;;;;;;;;;;;;2108041;28;966;-73
2022/01/08 06:42:35;;;;;;;;;;;;;;;;;;2107262;28;1921;-72
2022/01/08 06:43:35;;;;;;;;;;;;;;;;;;2108037;28;1048;-71
2022/01/08 06:44:37;;;;;;;;;;;;;;;;;;2108426;28;872;-71
2022/01/08 06:45:37;;;;;;;;;;;;;;;;;;2108572;28;884;-71
2022/01/08 06:46:40;;;;;;;;;;;;;;;;;;2108330;28;871;-73
2022/01/08 06:47:43;;;;;;;;;;;;;;;;;;2108487;28;787;-72
2022/01/08 06:48:44;;;;;;;;;;;;;;;;;;2107436;28;1888;-72
2022/01/08 06:49:45;;;;;;;;;;;;;;;;;;2108457;28;1061;-71
2022/01/08 06:50:46;;;;;;;;;;;;;;;;;;2108231;28;1910;-73
2022/01/08 06:51:47;;;;;;;;;;;;;;;;;;2107177;28;1909;-72
2022/01/08 06:52:49;;;;;;;;;;;;;;;;;;2107866;28;864;-72
2022/01/08 06:53:49;;;;;;;;;;;;;;;;;;2108541;28;850;-73
2022/01/08 06:54:51;;;;;;;;;;;;;;;;;;2106966;28;2050;-73
2022/01/08 06:55:51;;;;;;;;;;;;;;;;;;2107836;28;1057;-71
2022/01/08 06:56:53;;;;;;;;;;;;;;;;;;2108240;28;1057;-73
2022/01/08 06:57:55;;;;;;;;;;;;;;;;;;2114437;28;1865;-73
2022/01/08 06:58:57;;;;;;;;;;;;;;;;;;2116034;28;1088;-73
2022/01/08 06:59:57;;;;;;;;;;;;;;;;;;2108419;28;870;-71
2022/01/08 07:00:59;;;;;;;;;;;;;;;;;;2108412;28;896;-72
2022/01/08 07:01:59;;;;;;;;;;;;;;;;;;2108397;28;803;-71
2022/01/08 07:03:01;;;;;;;;;;;;;;;;;;2107439;28;1822;-72
2022/01/08 07:04:02;;;;;;;;;;;;;;;;;;2108357;28;1044;-70
2022/01/08 07:05:04;;;;;;;;;;;;;;;;;;2108349;28;850;-71
2022/01/08 07:06:04;;;;;;;;;;;;;;;;;;2107238;28;2095;-71
2022/01/08 07:07:06;;;;;;;;;;;;;;;;;;2108395;28;939;-73
2022/01/08 07:08:06;;;;;;;;;;;;;;;;;;2108419;28;787;-71
2022/01/08 07:09:08;;;;;;;;;;;;;;;;;;2108273;28;906;-71
2022/01/08 07:10:09;;;;;;;;;;;;;;;;;;2108381;28;938;-71
2022/01/08 07:11:10;;;;;;;;;;;;;;;;;;2108196;28;1980;-72
2022/01/08 07:12:11;;;;;;;;;;;;;;;;;;2107556;28;1892;-74
2022/01/08 07:13:14;;;;;;;;;;;;;;;;;;2108235;28;1085;-72
2022/01/08 07:14:15;;;;;;;;;;;;;;;;;;2108398;28;1069;-72
2022/01/08 07:15:17;;;;;;;;;;;;;;;;;;2107184;28;1921;-72
2022/01/08 07:16:17;;;;;;;;;;;;;;;;;;2108264;28;969;-71
2022/01/08 07:17:19;;;;;;;;;;;;;;;;;;2108059;28;820;-72
2022/01/08 07:18:19;;;;;;;;;;;;;;;;;;2107529;28;1910;-72
2022/01/08 07:19:21;;;;;;;;;;;;;;;;;;2108167;28;1052;-72
2022/01/08 07:20:21;;;;;;;;;;;;;;;;;;2108265;28;890;-71
2022/01/08 07:21:23;;;;;;;;;;;;;;;;;;2106667;28;1862;-73
2022/01/08 07:22:23;;;;;;;;;;;;;;;;;;2107577;28;995;-73
2022/01/08 07:23:25;;;;;;;;;;;;;;;;;;2107602;28;1360;-72
2022/01/08 07:24:25;;;;;;;;;;;;;;;;;;2103709;28;1885;-72
2022/01/08 07:25:27;;;;;;;;;;;;;;;;;;2099868;28;1048;-72
2022/01/08 07:26:27;;;;;;;;;;;;;;;;;;2099726;28;784;-70
2022/01/08 07:27:32;;;;;;;;;;;;;;;;;;2103568;28;1829;-71
2022/01/08 07:28:35;;;;;;;;;;;;;;;;;;2108087;28;930;-73